Time;durP1;ratioP1;P1;durP2;ratioP2;P2;SDS_P1;SDS_P2;PMS_P1;PMS_P2;Temp;Humidity;BMP_temperature;BMP_pressure;BME280_temperature;BME280_humidity;BME280_pressure;Samples;Min_cycle;Max_cycle;Signal;HPM_P1;HPM_P2
2022/05/09 00:01:13;;;;;;;4.00;3.60;;;12.90;99.90;;;;;;5051359;28;20819;-46
2022/05/09 00:03:42;;;;;;;3.60;3.30;;;12.90;99.90;;;;;;5051027;28;20457;-50
2022/05/09 00:06:11;;;;;;;4.77;4.27;;;12.90;99.90;;;;;;5051079;28;20441;-45
2022/05/09 00:08:39;;;;;;;4.93;4.40;;;12.80;99.90;;;;;;5050938;28;20445;-45
2022/05/09 00:11:07;;;;;;;4.37;3.83;;;12.70;99.90;;;;;;5052245;28;20445;-45
2022/05/09 00:13:34;;;;;;;4.40;4.00;;;12.70;99.90;;;;;;5117835;22;20519;-46
2022/05/09 00:16:01;;;;;;;5.57;4.90;;;12.60;99.90;;;;;;5075126;28;20953;-46
2022/05/09 00:18:28;;;;;;;5.33;4.20;;;12.80;99.90;;;;;;5074812;28;20444;-46
2022/05/09 00:20:54;;;;;;;5.80;4.57;;;12.80;99.90;;;;;;5075125;28;20444;-46
2022/05/09 00:23:23;;;;;;;5.50;4.57;;;12.90;99.90;;;;;;5074696;28;20456;-46
2022/05/09 00:25:50;;;;;;;4.73;4.23;;;13.00;99.90;;;;;;5074911;28;20463;-46
2022/05/09 00:28:18;;;;;;;4.20;3.80;;;13.10;99.90;;;;;;5075179;28;20479;-46
2022/05/09 00:30:44;;;;;;;6.23;3.70;;;13.20;99.90;;;;;;5075183;28;20456;-46
2022/05/09 00:33:11;;;;;;;4.90;4.40;;;13.30;99.90;;;;;;5074775;28;20472;-46
2022/05/09 00:35:40;;;;;;;4.97;3.70;;;13.30;99.90;;;;;;5074936;28;20981;-46
2022/05/09 00:38:08;;;;;;;5.27;4.13;;;13.50;99.90;;;;;;5074976;28;20979;-46
2022/05/09 00:40:38;;;;;;;4.40;4.00;;;13.50;99.90;;;;;;5074793;28;20510;-46
2022/05/09 00:43:29;;;;;;;4.17;3.60;;;13.60;99.90;;;;;;5074401;28;20440;-46
2022/05/09 00:45:56;;;;;;;5.17;4.67;;;13.70;99.90;;;;;;5074943;28;20474;-46
2022/05/09 00:48:23;;;;;;;4.50;4.10;;;13.70;99.90;;;;;;5074401;28;20440;-46
2022/05/09 00:50:50;;;;;;;5.13;3.67;;;13.70;99.90;;;;;;5074524;28;20838;-46
2022/05/09 00:53:17;;;;;;;4.20;3.77;;;13.70;99.90;;;;;;5074222;28;20494;-46
2022/05/09 00:55:48;;;;;;;4.70;4.27;;;13.60;99.90;;;;;;5074753;28;20476;-46
2022/05/09 00:58:21;;;;;;;5.50;4.03;;;13.70;99.90;;;;;;5074897;28;20476;-46
2022/05/09 01:00:50;;;;;;;5.20;3.37;;;13.70;99.90;;;;;;5074711;28;20440;-46
2022/05/09 01:03:21;;;;;;;4.17;3.30;;;13.60;99.90;;;;;;5074066;28;20490;-46
2022/05/09 01:05:51;;;;;;;3.97;3.50;;;13.70;99.90;;;;;;5074506;28;20448;-46
2022/05/09 01:08:18;;;;;;;4.13;3.67;;;13.60;99.90;;;;;;5074581;28;20444;-46
2022/05/09 01:10:47;;;;;;;4.63;4.20;;;13.70;99.90;;;;;;5074601;28;20881;-46
2022/05/09 01:13:16;;;;;;;4.40;3.80;;;13.60;99.90;;;;;;5073960;28;20440;-46
2022/05/09 01:15:45;;;;;;;5.20;4.10;;;13.60;99.90;;;;;;5074157;28;20482;-46
2022/05/09 01:18:14;;;;;;;3.53;3.23;;;13.60;99.90;;;;;;5074059;28;20445;-46
2022/05/09 01:20:41;;;;;;;3.80;3.40;;;13.60;99.90;;;;;;5074257;28;20539;-46
2022/05/09 01:23:11;;;;;;;4.50;3.97;;;13.60;99.90;;;;;;5072565;28;20476;-46
2022/05/09 01:25:38;;;;;;;4.70;4.30;;;13.50;99.90;;;;;;5073826;28;20451;-46
2022/05/09 01:28:06;;;;;;;4.83;4.30;;;13.30;99.90;;;;;;5073897;28;20476;-46
2022/05/09 01:30:38;;;;;;;6.47;5.87;;;13.10;99.90;;;;;;5073733;28;20987;-45
2022/05/09 01:33:10;;;;;;;5.93;4.27;;;12.90;99.90;;;;;;5074008;28;20995;-46
2022/05/09 01:35:41;;;;;;;5.77;3.80;;;12.70;99.90;;;;;;5073616;28;20559;-46
2022/05/09 01:38:17;;;;;;;4.03;3.60;;;12.70;99.90;;;;;;5073744;28;20871;-46
2022/05/09 01:40:45;;;;;;;5.80;5.20;;;12.60;99.90;;;;;;5073638;28;20527;-46
2022/05/09 01:43:12;;;;;;;4.80;4.00;;;12.50;99.90;;;;;;5073266;28;20480;-46
2022/05/09 01:45:39;;;;;;;5.57;4.40;;;12.60;99.90;;;;;;5073984;28;20495;-46
2022/05/09 01:50:51;;;;;;;5.00;4.50;;;12.50;99.90;;;;;;5073686;28;20828;-46
2022/05/09 01:53:19;;;;;;;4.83;4.43;;;12.60;99.90;;;;;;5073103;28;20476;-46
2022/05/09 01:55:46;;;;;;;5.60;5.10;;;12.60;99.90;;;;;;5073819;28;20582;-46
2022/05/09 01:58:13;;;;;;;6.07;5.00;;;12.70;99.90;;;;;;5073507;28;20502;-46
2022/05/09 02:00:42;;;;;;;9.03;4.43;;;12.80;99.90;;;;;;5073569;28;20472;-46
2022/05/09 02:03:09;;;;;;;8.33;5.23;;;12.80;99.90;;;;;;5073060;28;20444;-46
2022/05/09 02:05:36;;;;;;;5.63;4.67;;;12.90;99.90;;;;;;5073247;28;20475;-46
2022/05/09 02:08:03;;;;;;;7.00;4.50;;;12.90;99.90;;;;;;5073540;28;20483;-46
2022/05/09 02:10:32;;;;;;;4.93;4.40;;;12.90;99.90;;;;;;5073135;28;20479;-46
2022/05/09 02:12:59;;;;;;;7.37;4.50;;;12.70;99.90;;;;;;5072747;28;20480;-46
2022/05/09 02:15:31;;;;;;;4.30;3.90;;;12.60;99.90;;;;;;5073074;28;20476;-46
2022/05/09 02:17:58;;;;;;;4.90;3.90;;;12.60;99.90;;;;;;5073179;28;20738;-46
2022/05/09 02:20:25;;;;;;;4.00;3.60;;;12.60;99.90;;;;;;5072969;28;20539;-46
2022/05/09 02:22:52;;;;;;;5.57;5.03;;;12.60;99.90;;;;;;5072803;28;20453;-46
2022/05/09 02:25:29;;;;;;;6.47;4.43;;;12.60;99.90;;;;;;5072645;28;20484;-46
2022/05/09 02:27:57;;;;;;;5.27;4.47;;;12.60;99.90;;;;;;5072834;28;20491;-46
2022/05/09 02:30:25;;;;;;;5.10;4.60;;;12.60;99.90;;;;;;5072839;28;20440;-46
2022/05/09 02:32:52;;;;;;;7.63;5.07;;;12.80;99.90;;;;;;5072363;28;20440;-46
2022/05/09 02:35:20;;;;;;;4.77;3.60;;;12.80;99.90;;;;;;5072626;28;20987;-46
2022/05/09 02:37:48;;;;;;;5.90;4.23;;;12.80;99.90;;;;;;5072732;28;20455;-45
2022/05/09 02:40:15;;;;;;;5.70;4.17;;;12.90;99.90;;;;;;5072596;28;20444;-46
2022/05/09 02:42:42;;;;;;;5.10;4.60;;;13.00;99.90;;;;;;5072405;28;20446;-46
2022/05/09 02:45:11;;;;;;;5.20;4.30;;;13.20;99.90;;;;;;5072470;28;21031;-46
2022/05/09 02:47:40;;;;;;;4.60;4.20;;;13.20;99.90;;;;;;5072097;28;20498;-46
2022/05/09 02:50:09;;;;;;;5.37;4.70;;;13.20;99.90;;;;;;5072297;28;20472;-46
2022/05/09 02:52:37;;;;;;;4.10;3.60;;;13.10;99.90;;;;;;5072126;28;20444;-46
2022/05/09 02:55:05;;;;;;;4.80;3.70;;;13.00;99.90;;;;;;5071981;28;20899;-46
2022/05/09 02:57:32;;;;;;;4.47;4.07;;;12.80;99.90;;;;;;5072067;28;20437;-46
2022/05/09 02:59:59;;;;;;;6.50;4.40;;;12.70;99.90;;;;;;5072010;28;20505;-46
2022/05/09 03:02:28;;;;;;;5.53;4.50;;;12.60;99.90;;;;;;5071973;28;20445;-45
2022/05/09 03:04:54;;;;;;;5.10;4.60;;;12.50;99.90;;;;;;5071994;28;20999;-46
2022/05/09 03:07:22;;;;;;;6.50;5.30;;;12.50;99.90;;;;;;5072019;28;20472;-46
2022/05/09 03:09:50;;;;;;;5.00;4.50;;;12.50;99.90;;;;;;5072014;28;20451;-45
2022/05/09 03:12:19;;;;;;;5.03;4.47;;;12.60;99.90;;;;;;5072065;28;20472;-46
2022/05/09 03:14:47;;;;;;;6.33;5.40;;;12.70;99.90;;;;;;5071779;28;20488;-46
2022/05/09 03:17:15;;;;;;;6.60;4.73;;;12.70;99.90;;;;;;5072015;28;20445;-46
2022/05/09 03:19:44;;;;;;;6.30;4.53;;;12.80;99.90;;;;;;5071867;28;20856;-46
2022/05/09 03:22:13;;;;;;;4.30;3.47;;;12.70;99.90;;;;;;5071564;28;20866;-45
2022/05/09 03:24:40;;;;;;;4.87;3.53;;;12.70;99.90;;;;;;5072013;28;20472;-46
2022/05/09 03:27:07;;;;;;;3.70;3.40;;;12.70;99.90;;;;;;5071780;28;20905;-46
2022/05/09 03:29:34;;;;;;;3.97;3.67;;;12.50;99.90;;;;;;5071843;28;20971;-46
2022/05/09 03:32:01;;;;;;;3.60;3.00;;;12.60;99.90;;;;;;5071410;28;20952;-46
2022/05/09 03:34:29;;;;;;;4.20;3.80;;;12.50;99.90;;;;;;5071227;28;20969;-46
2022/05/09 03:36:58;;;;;;;3.40;3.10;;;12.50;99.90;;;;;;5071573;28;20868;-45
2022/05/09 03:39:24;;;;;;;5.30;3.43;;;12.60;99.90;;;;;;5071668;28;20953;-46
2022/05/09 03:41:52;;;;;;;3.90;3.43;;;12.60;99.90;;;;;;5071659;28;20542;-46
2022/05/09 03:44:18;;;;;;;4.07;3.50;;;12.30;99.90;;;;;;5071291;28;20487;-46
2022/05/09 03:46:45;;;;;;;5.90;4.93;;;12.20;99.90;;;;;;5070831;28;20502;-46
2022/05/09 03:49:12;;;;;;;5.60;4.20;;;12.00;99.90;;;;;;5071216;28;20999;-46
2022/05/09 03:51:39;;;;;;;5.00;4.50;;;11.80;99.90;;;;;;5071645;28;20440;-46
2022/05/09 03:54:08;;;;;;;4.90;3.70;;;11.90;99.90;;;;;;5070925;28;20837;-46
2022/05/09 03:56:35;;;;;;;4.60;4.20;;;11.90;99.90;;;;;;5070983;28;20806;-46
2022/05/09 03:59:02;;;;;;;4.43;3.83;;;12.10;99.90;;;;;;5071235;28;20933;-46
2022/05/09 04:01:28;;;;;;;5.33;3.90;;;12.20;99.90;;;;;;5071699;28;20472;-46
2022/05/09 04:03:55;;;;;;;5.00;4.50;;;12.30;99.90;;;;;;5070916;28;20495;-45
2022/05/09 04:06:22;;;;;;;5.03;4.57;;;12.30;99.90;;;;;;5071392;28;20437;-46
2022/05/09 04:08:49;;;;;;;5.00;4.00;;;12.40;99.90;;;;;;5071273;28;20455;-46
2022/05/09 04:11:18;;;;;;;5.20;4.03;;;12.40;99.90;;;;;;5071527;28;20987;-46
2022/05/09 04:13:45;;;;;;;5.10;4.00;;;12.70;99.90;;;;;;5070683;28;20472;-46
2022/05/09 04:18:59;;;;;;;4.07;3.30;;;12.60;99.90;;;;;;5071301;28;20971;-46
2022/05/09 04:21:27;;;;;;;5.37;4.70;;;12.50;99.90;;;;;;5071188;28;20472;-46
2022/05/09 04:23:58;;;;;;;5.27;4.60;;;12.40;99.90;;;;;;5070905;28;20529;-46
2022/05/09 04:26:27;;;;;;;4.67;4.27;;;12.30;99.90;;;;;;5070978;28;20494;-46
2022/05/09 04:28:54;;;;;;;4.37;3.93;;;12.30;99.90;;;;;;5071091;28;20476;-46
2022/05/09 04:31:22;;;;;;;6.23;5.00;;;12.40;99.90;;;;;;5070844;28;20480;-46
2022/05/09 04:33:49;;;;;;;6.87;5.13;;;12.50;99.90;;;;;;5071031;28;20517;-46
2022/05/09 04:36:16;;;;;;;5.13;4.50;;;12.60;99.90;;;;;;5070826;28;20572;-46
2022/05/09 04:38:45;;;;;;;5.77;4.20;;;12.70;99.90;;;;;;5070706;28;20991;-46
2022/05/09 04:41:13;;;;;;;5.87;4.70;;;12.80;99.90;;;;;;5071206;28;21014;-45
2022/05/09 04:43:42;;;;;;;8.20;4.33;;;12.70;99.90;;;;;;5070858;28;20464;-46
2022/05/09 04:46:09;;;;;;;4.37;3.90;;;12.70;99.90;;;;;;5070867;28;20494;-46
2022/05/09 04:48:35;;;;;;;5.30;4.80;;;12.50;99.90;;;;;;5070657;28;20490;-46
2022/05/09 04:51:02;;;;;;;6.47;5.00;;;12.40;99.90;;;;;;5070907;28;20976;-45
2022/05/09 04:53:29;;;;;;;5.50;5.00;;;12.40;99.90;;;;;;5070667;28;20464;-46
2022/05/09 04:55:57;;;;;;;5.20;4.13;;;12.30;99.90;;;;;;5070732;28;20559;-46
2022/05/09 04:58:24;;;;;;;5.60;4.67;;;12.20;99.90;;;;;;5073959;28;20440;-46
2022/05/09 05:00:52;;;;;;;6.17;5.57;;;12.20;99.90;;;;;;5074502;28;20468;-46
2022/05/09 05:03:19;;;;;;;7.67;6.70;;;12.30;99.90;;;;;;5074063;28;20462;-46
2022/05/09 05:05:47;;;;;;;7.97;7.27;;;12.30;99.90;;;;;;5074196;28;20969;-45
2022/05/09 05:08:14;;;;;;;7.10;6.50;;;12.30;99.90;;;;;;5074536;28;20541;-46
2022/05/09 05:10:42;;;;;;;4.47;4.07;;;12.30;99.90;;;;;;5074339;28;20455;-46
2022/05/09 05:13:10;;;;;;;4.97;4.10;;;12.30;99.90;;;;;;5073823;28;20436;-46
2022/05/09 05:15:37;;;;;;;5.30;4.80;;;12.40;99.90;;;;;;5074221;28;20479;-45
2022/05/09 05:18:05;;;;;;;4.90;4.37;;;12.40;99.90;;;;;;5074199;28;20468;-46
2022/05/09 05:20:32;;;;;;;5.73;5.17;;;12.50;99.90;;;;;;5073774;28;20483;-46
2022/05/09 05:22:59;;;;;;;7.30;5.13;;;12.50;99.90;;;;;;5073774;28;20878;-46
2022/05/09 05:25:30;;;;;;;6.47;5.87;;;12.50;99.90;;;;;;5074098;28;20718;-46
2022/05/09 05:27:57;;;;;;;5.23;4.73;;;12.50;99.90;;;;;;5074086;28;20941;-46
2022/05/09 05:30:25;;;;;;;5.30;4.80;;;12.60;99.90;;;;;;5073924;28;20444;-46
2022/05/09 05:32:54;;;;;;;4.90;4.40;;;12.60;99.90;;;;;;5073653;28;20468;-46
2022/05/09 05:35:25;;;;;;;7.07;5.00;;;12.60;99.90;;;;;;5073949;28;20502;-46
2022/05/09 05:37:52;;;;;;;5.33;4.33;;;12.70;99.90;;;;;;5073836;28;20475;-46
2022/05/09 05:40:19;;;;;;;4.70;3.90;;;12.70;99.90;;;;;;5073982;28;20440;-46
2022/05/09 05:42:47;;;;;;;6.23;5.57;;;12.70;99.90;;;;;;5073561;28;20475;-46
2022/05/09 05:45:16;;;;;;;5.90;5.40;;;12.80;99.90;;;;;;5073440;28;20522;-46
2022/05/09 05:47:43;;;;;;;6.33;4.97;;;12.80;99.90;;;;;;5073011;28;20466;-46
2022/05/09 05:50:12;;;;;;;6.40;5.80;;;12.80;99.90;;;;;;5073773;28;20479;-46
2022/05/09 05:52:41;;;;;;;6.60;6.00;;;12.90;99.90;;;;;;5073156;28;20441;-46
2022/05/09 05:55:09;;;;;;;5.53;5.03;;;12.90;99.90;;;;;;5073598;28;20777;-46
2022/05/09 05:57:38;;;;;;;7.50;5.97;;;12.90;99.90;;;;;;5073874;28;20523;-46
2022/05/09 06:00:08;;;;;;;6.87;6.17;;;12.90;99.90;;;;;;5073611;28;20444;-46
2022/05/09 06:02:38;;;;;;;6.40;5.53;;;13.00;99.90;;;;;;5073082;28;20816;-46
2022/05/09 06:05:06;;;;;;;6.23;5.63;;;13.00;99.90;;;;;;5073153;28;20534;-46
2022/05/09 06:07:33;;;;;;;6.43;5.00;;;13.00;99.90;;;;;;5073676;28;20437;-46
2022/05/09 06:10:01;;;;;;;6.67;5.90;;;13.10;99.90;;;;;;5072454;28;21071;-46
2022/05/09 06:12:28;;;;;;;6.80;6.10;;;13.10;99.90;;;;;;5072965;28;20483;-46
2022/05/09 06:17:41;;;;;;;5.93;5.33;;;13.20;99.90;;;;;;5093395;28;20485;-45
2022/05/09 06:20:11;;;;;;;5.97;5.37;;;13.20;99.90;;;;;;5093030;28;20436;-47
2022/05/09 06:22:39;;;;;;;6.10;5.00;;;13.20;99.90;;;;;;5092670;28;20443;-45
2022/05/09 06:25:10;;;;;;;5.20;4.70;;;13.20;99.90;;;;;;5093230;28;20466;-46
2022/05/09 06:27:37;;;;;;;6.40;4.93;;;13.20;99.90;;;;;;5093223;28;20440;-47
2022/05/09 06:30:06;;;;;;;6.70;6.10;;;13.30;99.90;;;;;;5093006;28;20463;-45
2022/05/09 06:32:34;;;;;;;5.70;5.20;;;13.30;99.90;;;;;;5092783;28;20467;-45
2022/05/09 06:35:01;;;;;;;6.30;5.23;;;13.30;99.90;;;;;;5092670;28;20459;-45
2022/05/09 06:37:32;;;;;;;25.87;17.90;;;13.40;99.90;;;;;;5092883;28;20558;-45
2022/05/09 06:39:59;;;;;;;8.93;7.30;;;13.30;99.90;;;;;;5093316;28;20443;-45
2022/05/09 06:42:28;;;;;;;7.83;6.40;;;13.30;99.90;;;;;;5092634;28;20874;-45
2022/05/09 06:44:55;;;;;;;6.50;5.67;;;13.30;99.90;;;;;;5092902;28;20475;-45
2022/05/09 06:47:22;;;;;;;6.30;5.67;;;13.40;99.90;;;;;;5092311;28;20890;-46
2022/05/09 06:49:49;;;;;;;7.00;5.70;;;13.30;99.90;;;;;;5092766;28;20452;-45
2022/05/09 06:52:16;;;;;;;6.70;5.80;;;13.30;99.90;;;;;;5092562;28;20581;-49
2022/05/09 06:54:43;;;;;;;4.97;4.30;;;13.40;99.90;;;;;;5092341;28;20550;-46
2022/05/09 06:57:10;;;;;;;5.10;4.60;;;13.50;99.90;;;;;;5092542;28;20563;-46
2022/05/09 06:59:38;;;;;;;7.27;4.73;;;13.60;99.90;;;;;;5092333;28;20444;-47
2022/05/09 07:02:05;;;;;;;11.23;4.87;;;13.80;99.90;;;;;;5092385;28;20569;-46
2022/05/09 07:04:33;;;;;;;4.63;4.10;;;13.80;99.90;;;;;;5092354;28;20491;-45
2022/05/09 07:06:59;;;;;;;4.83;4.40;;;13.90;99.90;;;;;;5092344;28;20439;-45
2022/05/09 07:09:26;;;;;;;4.73;4.23;;;13.90;99.90;;;;;;5092279;28;20440;-45
2022/05/09 07:11:54;;;;;;;5.97;4.10;;;14.00;99.90;;;;;;5092399;28;20492;-49
2022/05/09 07:14:22;;;;;;;5.57;4.47;;;14.00;99.90;;;;;;5092049;28;20472;-45
2022/05/09 07:16:50;;;;;;;4.27;3.87;;;14.10;99.90;;;;;;5092133;28;20524;-45
2022/05/09 07:19:17;;;;;;;3.80;3.50;;;14.20;99.90;;;;;;5092140;28;20954;-45
2022/05/09 07:21:44;;;;;;;4.13;3.73;;;14.20;99.90;;;;;;5091454;28;20443;-45
2022/05/09 07:24:11;;;;;;;3.87;3.47;;;14.20;99.90;;;;;;5092039;28;20518;-45
2022/05/09 07:26:38;;;;;;;5.80;3.50;;;14.20;99.90;;;;;;5091890;28;20924;-45
2022/05/09 07:29:05;;;;;;;4.37;3.90;;;14.20;99.90;;;;;;5092105;28;20482;-46
2022/05/09 07:31:33;;;;;;;5.60;3.93;;;14.30;99.90;;;;;;5092117;28;20439;-49
2022/05/09 07:34:01;;;;;;;4.33;3.90;;;14.30;99.90;;;;;;5091597;28;20486;-45
2022/05/09 07:36:28;;;;;;;5.57;4.80;;;14.20;99.90;;;;;;5091936;28;20475;-45
2022/05/09 07:38:55;;;;;;;5.53;4.47;;;14.10;99.90;;;;;;5091546;28;20474;-47
2022/05/09 07:41:22;;;;;;;4.67;3.83;;;14.10;99.90;;;;;;5091904;28;20844;-45
2022/05/09 07:43:50;;;;;;;4.43;4.00;;;14.00;99.90;;;;;;5091373;28;20993;-45
2022/05/09 07:46:17;;;;;;;4.30;3.90;;;14.30;99.90;;;;;;5091467;28;20859;-45
2022/05/09 07:48:44;;;;;;;3.93;3.33;;;14.70;99.90;;;;;;5091301;28;20504;-45
2022/05/09 07:51:14;;;;;;;3.57;3.27;;;15.20;99.90;;;;;;5091449;28;20530;-46
2022/05/09 07:53:41;;;;;;;2.73;2.53;;;15.60;99.90;;;;;;5091971;28;20444;-46
2022/05/09 07:56:08;;;;;;;4.20;3.80;;;15.90;99.90;;;;;;5091488;28;20479;-46
2022/05/09 07:58:36;;;;;;;3.40;3.10;;;16.00;99.90;;;;;;5091945;28;20444;-46
2022/05/09 08:01:05;;;;;;;2.90;2.60;;;16.00;99.90;;;;;;5091660;28;20447;-47
2022/05/09 08:03:34;;;;;;;4.43;4.03;;;15.90;99.90;;;;;;5091255;28;20497;-45
2022/05/09 08:06:02;;;;;;;3.17;2.87;;;16.10;99.90;;;;;;5091728;28;20819;-46
2022/05/09 08:08:35;;;;;;;4.40;3.30;;;16.40;99.90;;;;;;5091572;28;20865;-50
2022/05/09 08:11:03;;;;;;;2.73;2.40;;;16.50;99.90;;;;;;5091472;28;20439;-45
2022/05/09 08:13:33;;;;;;;8.40;7.60;;;16.60;99.90;;;;;;5091067;28;20439;-45
2022/05/09 08:16:01;;;;;;;3.10;2.80;;;16.80;99.90;;;;;;5091003;28;20455;-46
2022/05/09 08:18:30;;;;;;;2.70;2.50;;;17.00;99.90;;;;;;5091433;28;20440;-45
2022/05/09 08:20:57;;;;;;;4.33;2.50;;;17.00;99.90;;;;;;5091362;28;20805;-45
2022/05/09 08:23:24;;;;;;;3.57;2.70;;;17.10;99.90;;;;;;5090984;28;20443;-45
2022/05/09 08:25:55;;;;;;;3.10;2.80;;;16.90;99.90;;;;;;5091179;28;20485;-45
2022/05/09 08:28:22;;;;;;;2.50;2.30;;;17.00;99.90;;;;;;5091851;28;20483;-45
2022/05/09 08:30:51;;;;;;;3.00;2.50;;;17.10;99.90;;;;;;5091160;28;20522;-46
2022/05/09 08:33:21;;;;;;;2.87;2.30;;;17.10;99.90;;;;;;5093977;28;20960;-45
2022/05/09 08:35:50;;;;;;;2.63;2.40;;;17.20;99.90;;;;;;5095389;28;20895;-45
2022/05/09 08:38:17;;;;;;;3.47;3.17;;;17.30;99.90;;;;;;5095137;28;20436;-45
2022/05/09 08:40:53;;;;;;;2.50;2.30;;;17.50;99.90;;;;;;5094894;28;20443;-45
2022/05/09 08:43:34;;;;;;;2.47;2.27;;;17.60;99.90;;;;;;5094997;28;20496;-45
2022/05/09 08:46:11;;;;;;;2.27;2.03;;;17.80;99.90;;;;;;5095254;28;20516;-46
2022/05/09 08:48:53;;;;;;;5.23;3.00;;;17.80;99.90;;;;;;5094605;28;20482;-46
2022/05/09 08:51:39;;;;;;;4.90;2.50;;;17.80;99.90;;;;;;5094819;28;20508;-43
2022/05/09 08:54:12;;;;;;;2.67;2.30;;;17.80;99.90;;;;;;5094643;28;21296;-50
2022/05/09 08:56:39;;;;;;;4.77;2.50;;;18.00;99.90;;;;;;5094731;28;21007;-45
2022/05/09 08:59:14;;;;;;;3.77;2.87;;;18.00;99.90;;;;;;5094736;28;20521;-48
2022/05/09 09:01:45;;;;;;;2.67;2.17;;;18.00;99.90;;;;;;5094652;28;20442;-45
2022/05/09 09:04:21;;;;;;;3.30;2.47;;;18.10;99.90;;;;;;5094216;28;20550;-46
2022/05/09 09:07:13;;;;;;;2.90;2.60;;;18.20;99.90;;;;;;5094749;28;20439;-45
2022/05/09 09:10:02;;;;;;;11.80;3.00;;;18.40;99.90;;;;;;5092127;28;20451;-46
2022/05/09 09:12:38;;;;;;;26.83;6.30;;;18.40;99.90;;;;;;5094259;28;20443;-48
2022/05/09 09:15:13;;;;;;;2.63;2.13;;;18.40;99.90;;;;;;5094491;28;20888;-50
2022/05/09 09:17:58;;;;;;;3.20;1.97;;;18.40;99.90;;;;;;5094513;28;20479;-47
2022/05/09 09:20:29;;;;;;;2.90;2.50;;;18.50;99.90;;;;;;5094267;28;20486;-50
2022/05/09 09:23:14;;;;;;;17.70;7.00;;;18.50;99.90;;;;;;5094466;28;20443;-46
2022/05/09 09:25:49;;;;;;;6.10;3.70;;;18.30;99.90;;;;;;5094321;28;20469;-45
2022/05/09 09:28:18;;;;;;;4.07;2.37;;;18.30;99.90;;;;;;5094094;28;20435;-49
2022/05/09 09:30:47;;;;;;;3.20;2.20;;;18.40;99.90;;;;;;5094185;28;20471;-46
2022/05/09 09:33:18;;;;;;;3.20;2.47;;;18.40;99.90;;;;;;5094050;28;20447;-45
2022/05/09 09:35:51;;;;;;;2.60;2.30;;;18.30;99.90;;;;;;5094076;28;20499;-45
2022/05/09 09:38:26;;;;;;;3.30;2.90;;;18.30;99.90;;;;;;5094137;28;20479;-45
2022/05/09 09:40:53;;;;;;;3.73;3.00;;;18.50;99.90;;;;;;5094133;28;20470;-46
2022/05/09 09:43:20;;;;;;;5.20;2.97;;;18.30;99.90;;;;;;5092778;28;20497;-46
2022/05/09 09:46:03;;;;;;;3.23;2.93;;;18.30;99.90;;;;;;5093646;28;20499;-45
2022/05/09 09:48:31;;;;;;;3.80;2.60;;;18.40;99.90;;;;;;5093680;28;20471;-45
2022/05/09 09:51:03;;;;;;;4.43;2.60;;;18.50;99.90;;;;;;5093881;28;20439;-45
2022/05/09 09:53:34;;;;;;;3.47;2.80;;;18.40;99.90;;;;;;5093576;28;20505;-46
2022/05/09 09:56:08;;;;;;;2.80;2.20;;;18.50;99.90;;;;;;5093972;28;20894;-46
2022/05/09 09:58:38;;;;;;;3.20;2.80;;;18.30;99.90;;;;;;5093775;28;20574;-45
2022/05/09 10:01:10;;;;;;;3.50;3.20;;;18.40;99.90;;;;;;5093622;28;20530;-46
2022/05/09 10:03:39;;;;;;;2.93;2.30;;;18.50;99.90;;;;;;5093427;28;20809;-46
2022/05/09 10:06:17;;;;;;;3.57;2.90;;;18.60;99.90;;;;;;5093610;28;20858;-45
2022/05/09 10:08:45;;;;;;;3.17;2.50;;;18.70;99.90;;;;;;5093612;28;20435;-45
2022/05/09 10:11:22;;;;;;;2.87;2.67;;;18.70;99.90;;;;;;5093439;28;20963;-45
2022/05/09 10:13:51;;;;;;;3.50;3.20;;;18.80;99.90;;;;;;5092710;28;20524;-46
2022/05/09 10:16:27;;;;;;;4.23;2.87;;;18.90;99.90;;;;;;5093370;28;20435;-46
2022/05/09 10:18:55;;;;;;;3.53;2.80;;;18.80;99.90;;;;;;5093489;28;20971;-45
2022/05/09 10:27:29;;;;;;;2.90;2.60;;;18.90;99.90;;;;;;4995878;28;20428;-48
2022/05/09 10:29:58;;;;;;;9.20;4.23;;;19.10;99.90;;;;;;5066944;28;20435;-45
2022/05/09 10:32:31;;;;;;;3.73;3.07;;;19.10;99.90;;;;;;5092860;28;21049;-45
2022/05/09 10:35:02;;;;;;;3.50;2.93;;;19.10;99.90;;;;;;5092796;28;20459;-45
2022/05/09 10:37:40;;;;;;;4.43;3.30;;;19.10;99.90;;;;;;5093051;28;20484;-45
2022/05/09 10:40:12;;;;;;;5.67;3.80;;;19.20;99.90;;;;;;5092772;28;20486;-46
2022/05/09 10:42:44;;;;;;;4.10;3.70;;;19.20;99.90;;;;;;5093167;28;20472;-46
2022/05/09 10:45:16;;;;;;;5.23;4.73;;;19.30;99.90;;;;;;5092706;28;20470;-46
2022/05/09 10:47:52;;;;;;;4.73;3.47;;;19.30;99.90;;;;;;5092474;28;20432;-45
2022/05/09 10:50:24;;;;;;;3.80;3.40;;;19.30;99.90;;;;;;5092702;28;20443;-45
2022/05/09 10:53:05;;;;;;;4.13;3.17;;;19.30;99.90;;;;;;5092311;28;20446;-45
2022/05/09 10:55:37;;;;;;;3.50;3.13;;;19.30;99.90;;;;;;5092065;28;20473;-45
2022/05/09 10:58:07;;;;;;;3.33;3.00;;;19.40;99.90;;;;;;5092537;28;20566;-49
2022/05/09 11:00:38;;;;;;;4.00;3.60;;;19.40;99.90;;;;;;5092657;28;20451;-45
2022/05/09 11:03:17;;;;;;;4.33;3.50;;;19.50;99.90;;;;;;5092322;28;20975;-45
2022/05/09 11:06:10;;;;;;;8.80;4.37;;;19.40;99.90;;;;;;5092307;28;20502;-45
2022/05/09 11:08:55;;;;;;;5.63;3.80;;;19.40;99.90;;;;;;5089963;28;20501;-45
2022/05/09 11:11:31;;;;;;;4.77;3.70;;;19.40;99.90;;;;;;5092387;28;20575;-44
2022/05/09 11:14:08;;;;;;;4.80;4.03;;;19.40;99.90;;;;;;5091796;28;20884;-45
2022/05/09 11:16:48;;;;;;;3.93;3.53;;;19.50;99.90;;;;;;5092487;28;20436;-46
2022/05/09 11:19:31;;;;;;;6.93;3.80;;;19.50;99.90;;;;;;5092203;28;20431;-45
2022/05/09 11:22:07;;;;;;;3.73;3.33;;;19.50;99.90;;;;;;5092031;28;20474;-45
2022/05/09 11:24:52;;;;;;;3.43;3.13;;;19.50;99.90;;;;;;5091908;28;20818;-45
2022/05/09 11:27:31;;;;;;;3.53;3.23;;;19.60;99.90;;;;;;5091934;28;20534;-44
2022/05/09 11:30:11;;;;;;;3.77;3.00;;;19.50;99.90;;;;;;5091939;28;20504;-47
2022/05/09 11:32:41;;;;;;;3.37;3.07;;;19.60;99.90;;;;;;5091686;28;20806;-49
2022/05/09 11:35:24;;;;;;;3.53;3.23;;;19.60;99.90;;;;;;5091822;28;20463;-45
2022/05/09 11:38:12;;;;;;;3.73;2.90;;;19.70;99.90;;;;;;5092059;28;20510;-45
2022/05/09 11:40:47;;;;;;;6.23;3.07;;;19.80;99.90;;;;;;5091652;28;20463;-46
2022/05/09 11:43:29;;;;;;;3.07;2.77;;;19.90;99.90;;;;;;5091394;28;20951;-45
2022/05/09 11:46:11;;;;;;;3.80;2.73;;;19.90;99.90;;;;;;5092004;28;20499;-45
2022/05/09 11:48:54;;;;;;;3.10;2.90;;;20.00;99.90;;;;;;5091458;28;20424;-46
2022/05/09 11:51:35;;;;;;;3.33;2.70;;;20.10;99.90;;;;;;5091582;28;20466;-45
2022/05/09 11:54:06;;;;;;;4.60;2.43;;;20.20;99.90;;;;;;5091410;28;20463;-45
2022/05/09 11:56:34;;;;;;;3.10;2.77;;;20.30;99.90;;;;;;5091440;28;20949;-42
2022/05/09 11:59:03;;;;;;;3.03;2.77;;;20.40;99.90;;;;;;5091334;28;21048;-45
2022/05/09 12:01:55;;;;;;;239.47;28.17;;;20.40;99.90;;;;;;5091633;28;20986;-50
2022/05/09 12:04:46;;;;;;;4.10;2.87;;;20.50;99.90;;;;;;5085732;28;20532;-45
2022/05/09 12:07:45;;;;;;;6.30;2.17;;;20.40;99.90;;;;;;5076389;28;20482;-44
2022/05/09 12:10:28;;;;;;;2.50;2.20;;;20.40;99.90;;;;;;5079095;28;20799;-45
2022/05/09 12:12:57;;;;;;;2.27;2.07;;;20.40;99.90;;;;;;5091141;28;20500;-48
2022/05/09 12:15:58;;;;;;;3.90;2.47;;;20.40;99.90;;;;;;5140165;22;20524;-45
2022/05/09 12:18:31;;;;;;;3.40;2.60;;;20.50;99.90;;;;;;5070912;28;20568;-45
2022/05/09 12:21:20;;;;;;;3.03;2.23;;;20.50;99.90;;;;;;5071117;28;20847;-45
2022/05/09 12:24:08;;;;;;;2.30;2.10;;;20.60;99.90;;;;;;5068033;28;20444;-44
2022/05/09 12:26:37;;;;;;;4.07;2.10;;;20.70;99.90;;;;;;5051042;28;20469;-44
2022/05/09 12:29:47;;;;;;;2.60;2.17;;;20.70;99.90;;;;;;5050825;28;20488;-45
2022/05/09 12:32:16;;;;;;;2.53;2.03;;;20.80;99.90;;;;;;5031203;28;20930;-44
2022/05/09 12:34:45;;;;;;;2.40;2.20;;;20.90;99.90;;;;;;5051315;28;20465;-44
2022/05/09 12:37:15;;;;;;;2.30;1.90;;;21.00;99.90;;;;;;5051176;28;20448;-44
2022/05/09 12:39:48;;;;;;;3.50;2.93;;;21.00;99.90;;;;;;5051036;28;20449;-44
2022/05/09 12:42:27;;;;;;;2.83;2.30;;;21.00;99.90;;;;;;5051093;28;20441;-44
2022/05/09 12:44:56;;;;;;;3.03;2.10;;;21.10;99.90;;;;;;5050935;28;20595;-45
2022/05/09 12:47:26;;;;;;;8.50;2.57;;;21.10;99.90;;;;;;5050820;28;20448;-44
2022/05/09 12:49:58;;;;;;;5.30;2.23;;;21.20;99.90;;;;;;5051125;28;20499;-44
2022/05/09 12:52:30;;;;;;;5.63;2.37;;;21.20;99.90;;;;;;5050854;28;20514;-44
2022/05/09 12:57:45;;;;;;;2.60;2.40;;;21.20;99.90;;;;;;5051117;28;20464;-44
2022/05/09 13:00:16;;;;;;;3.60;2.60;;;21.20;99.90;;;;;;5050901;28;20480;-44
2022/05/09 13:02:44;;;;;;;4.27;2.17;;;21.20;99.90;;;;;;5050460;28;20496;-44
2022/05/09 13:05:13;;;;;;;2.70;2.50;;;21.20;99.90;;;;;;5050657;28;20465;-44
2022/05/09 13:07:57;;;;;;;3.30;3.00;;;21.10;99.90;;;;;;5050675;28;20984;-44
2022/05/09 13:10:26;;;;;;;3.97;2.70;;;21.20;99.90;;;;;;5050541;28;20945;-44
2022/05/09 13:12:58;;;;;;;3.60;2.77;;;21.20;99.90;;;;;;5050694;28;20865;-44
2022/05/09 13:15:27;;;;;;;47.20;7.20;;;21.20;99.90;;;;;;5050353;28;20530;-44
2022/05/09 13:17:58;;;;;;;2.33;2.10;;;21.10;99.90;;;;;;5050722;28;20489;-44
2022/05/09 13:20:28;;;;;;;3.27;2.13;;;21.20;99.90;;;;;;5053398;28;20445;-44